Time;durP1;ratioP1;P1;durP2;ratioP2;P2;SDS_P1;SDS_P2;PMS_P1;PMS_P2;Temp;Humidity;BMP_temperature;BMP_pressure;BME280_temperature;BME280_humidity;BME280_pressure;Samples;Min_cycle;Max_cycle;Signal;HPM_P1;HPM_P2
2023/06/16 00:01:53;;;;;;;;;;;16.00;55.10;;;;;;4128710;28;19944;-84
2023/06/16 00:04:17;;;;;;;;;;;16.00;55.40;;;;;;4125091;28;19926;-84
2023/06/16 00:06:42;;;;;;;;;;;15.90;55.20;;;;;;4126533;28;19973;-84
2023/06/16 00:09:03;;;;;;;;;;;15.80;55.50;;;;;;4126280;28;20412;-83
2023/06/16 00:11:26;;;;;;;;;;;15.80;55.80;;;;;;4128010;28;19918;-84
2023/06/16 00:13:47;;;;;;;;;;;15.80;55.90;;;;;;4127419;28;19952;-83
2023/06/16 00:16:09;;;;;;;;;;;15.80;56.10;;;;;;4128776;28;19922;-84
2023/06/16 00:18:31;;;;;;;;;;;15.80;56.00;;;;;;4116914;28;19921;-83
2023/06/16 00:20:54;;;;;;;;;;;15.70;56.30;;;;;;4126604;28;20434;-84
2023/06/16 00:23:16;;;;;;;;;;;15.70;56.80;;;;;;4125993;28;19922;-84
2023/06/16 00:25:37;;;;;;;;;;;15.70;56.90;;;;;;4127238;28;19931;-83
2023/06/16 00:27:58;;;;;;;;;;;15.60;56.50;;;;;;4127371;28;20046;-84
2023/06/16 00:30:19;;;;;;;;;;;15.60;56.70;;;;;;4129712;28;19921;-84
2023/06/16 00:32:40;;;;;;;;;;;15.50;56.90;;;;;;4128222;28;20034;-83
2023/06/16 00:35:00;;;;;;;;;;;15.60;57.30;;;;;;4126041;28;19917;-83
2023/06/16 00:37:21;;;;;;;;;;;15.60;57.60;;;;;;4123864;28;19921;-83
2023/06/16 00:39:42;;;;;;;;;;;15.50;57.60;;;;;;4123598;28;19921;-84
2023/06/16 00:42:03;;;;;;;;;;;15.50;57.40;;;;;;4124156;28;19922;-83
2023/06/16 00:44:24;;;;;;;;;;;15.50;57.10;;;;;;4123466;28;19917;-83
2023/06/16 00:46:45;;;;;;;;;;;15.50;57.70;;;;;;4125727;28;19985;-84
2023/06/16 00:49:05;;;;;;;;;;;15.40;57.20;;;;;;4123312;28;20010;-85
2023/06/16 00:51:27;;;;;;;;;;;15.50;57.40;;;;;;4124531;28;19968;-83
2023/06/16 00:53:48;;;;;;;;;;;15.40;57.70;;;;;;4127353;28;19928;-84
2023/06/16 00:56:08;;;;;;;;;;;15.40;57.80;;;;;;4125265;28;19964;-82
2023/06/16 00:58:30;;;;;;;;;;;15.40;57.40;;;;;;4131444;28;20378;-84
2023/06/16 01:00:51;;;;;;;;;;;15.40;56.70;;;;;;4124276;28;19918;-83
2023/06/16 01:03:13;;;;;;;;;;;15.40;57.20;;;;;;4127903;28;19961;-83
2023/06/16 01:05:34;;;;;;;;;;;15.40;57.30;;;;;;4123854;28;19945;-84
2023/06/16 01:08:00;;;;;;;;;;;15.30;57.40;;;;;;4126360;28;19917;-83
2023/06/16 01:10:27;;;;;;;;;;;15.30;57.40;;;;;;4125527;28;19929;-83
2023/06/16 01:12:56;;;;;;;;;;;15.20;57.30;;;;;;4125329;28;19922;-82
2023/06/16 01:15:20;;;;;;;;;;;15.20;57.40;;;;;;4126653;28;19926;-83
2023/06/16 01:17:43;;;;;;;;;;;15.20;58.10;;;;;;4127576;28;19922;-83
2023/06/16 01:20:10;;;;;;;;;;;15.10;58.40;;;;;;4126545;28;20073;-83
2023/06/16 01:22:50;;;;;;;;;;;15.10;58.50;;;;;;4125760;28;19921;-84
2023/06/16 01:25:14;;;;;;;;;;;15.10;58.60;;;;;;4125882;28;19914;-83
2023/06/16 01:27:37;;;;;;;;;;;15.10;58.60;;;;;;4124644;28;19921;-83
2023/06/16 01:29:58;;;;;;;;;;;15.00;58.70;;;;;;4125325;28;19933;-84
2023/06/16 01:32:20;;;;;;;;;;;15.00;58.80;;;;;;4128591;28;19922;-83
2023/06/16 01:34:42;;;;;;;;;;;15.00;58.50;;;;;;4126411;28;19929;-84
2023/06/16 01:37:04;;;;;;;;;;;14.90;58.50;;;;;;4122921;28;19922;-82
2023/06/16 01:39:25;;;;;;;;;;;14.90;58.80;;;;;;4126401;28;20106;-84
2023/06/16 01:41:47;;;;;;;;;;;14.90;58.90;;;;;;4128821;28;20016;-84
2023/06/16 01:44:08;;;;;;;;;;;14.80;59.00;;;;;;4128034;28;19973;-84
2023/06/16 01:46:29;;;;;;;;;;;14.80;58.90;;;;;;4126093;28;19933;-83
2023/06/16 01:48:50;;;;;;;;;;;14.80;58.80;;;;;;4128652;28;19926;-84
2023/06/16 01:51:12;;;;;;;;;;;14.70;58.70;;;;;;4130974;28;19924;-84
2023/06/16 01:53:33;;;;;;;;;;;14.70;58.70;;;;;;4129221;28;19922;-83
2023/06/16 01:55:53;;;;;;;;;;;14.70;59.10;;;;;;4127323;28;19953;-84
2023/06/16 01:58:15;;;;;;;;;;;14.70;59.60;;;;;;4128486;28;19949;-83
2023/06/16 02:00:39;;;;;;;;;;;14.70;59.80;;;;;;4130106;28;20012;-84
2023/06/16 02:03:05;;;;;;;;;;;14.70;59.40;;;;;;4127699;28;19933;-82
2023/06/16 02:05:30;;;;;;;;;;;14.60;59.40;;;;;;4128128;28;19913;-82
2023/06/16 02:07:52;;;;;;;;;;;14.60;59.10;;;;;;4131768;28;19914;-84
2023/06/16 02:10:13;;;;;;;;;;;14.50;59.20;;;;;;4128520;28;19933;-85
2023/06/16 02:12:34;;;;;;;;;;;14.50;58.70;;;;;;4129446;28;19941;-82
2023/06/16 02:14:55;;;;;;;;;;;14.50;59.20;;;;;;4129734;28;19928;-84
2023/06/16 02:17:16;;;;;;;;;;;14.40;59.30;;;;;;4129161;28;21221;-82
2023/06/16 02:19:40;;;;;;;;;;;14.40;59.30;;;;;;4130838;28;19928;-83
2023/06/16 02:22:01;;;;;;;;;;;14.40;59.50;;;;;;4130647;28;19949;-84
2023/06/16 02:24:22;;;;;;;;;;;14.30;59.80;;;;;;4130291;28;19921;-85
2023/06/16 02:26:43;;;;;;;;;;;14.30;59.60;;;;;;4132496;28;20188;-84
2023/06/16 02:29:03;;;;;;;;;;;14.30;59.60;;;;;;4130497;28;20140;-84
2023/06/16 02:31:24;;;;;;;;;;;14.20;59.90;;;;;;4136857;28;19921;-85
2023/06/16 02:33:45;;;;;;;;;;;14.20;60.60;;;;;;4132265;28;20011;-84
2023/06/16 02:36:06;;;;;;;;;;;14.20;61.30;;;;;;4132904;28;19921;-85
2023/06/16 02:38:27;;;;;;;;;;;14.10;59.20;;;;;;4134889;28;20381;-83
2023/06/16 02:40:48;;;;;;;;;;;14.10;59.40;;;;;;4128218;28;19922;-85
2023/06/16 02:43:08;;;;;;;;;;;14.10;59.50;;;;;;4132071;28;19953;-83
2023/06/16 02:45:29;;;;;;;;;;;14.00;59.60;;;;;;4126217;28;19914;-84
2023/06/16 02:47:50;;;;;;;;;;;14.10;59.60;;;;;;4131246;28;20293;-83
2023/06/16 02:50:11;;;;;;;;;;;13.90;59.40;;;;;;4128941;28;20490;-83
2023/06/16 02:52:32;;;;;;;;;;;13.90;60.70;;;;;;4129307;28;19996;-84
2023/06/16 02:54:53;;;;;;;;;;;13.80;60.70;;;;;;4128813;28;19944;-84
2023/06/16 02:57:14;;;;;;;;;;;13.90;61.00;;;;;;4130665;28;20459;-84
2023/06/16 02:59:35;;;;;;;;;;;13.80;60.20;;;;;;4127056;28;19921;-83
2023/06/16 03:01:56;;;;;;;;;;;13.80;59.80;;;;;;4125846;28;19964;-83
2023/06/16 03:04:17;;;;;;;;;;;13.70;60.20;;;;;;4120052;28;19968;-84
2023/06/16 03:06:37;;;;;;;;;;;13.70;60.30;;;;;;4127913;28;20016;-85
2023/06/16 03:08:58;;;;;;;;;;;13.70;60.80;;;;;;4128865;28;20615;-83
2023/06/16 03:11:19;;;;;;;;;;;13.60;61.40;;;;;;4126908;28;19925;-85
2023/06/16 03:13:41;;;;;;;;;;;13.60;61.00;;;;;;4126686;28;19928;-84
2023/06/16 03:16:02;;;;;;;;;;;13.60;60.90;;;;;;4128830;28;19922;-83
2023/06/16 03:18:23;;;;;;;;;;;13.60;61.20;;;;;;4129381;28;19972;-84
2023/06/16 03:20:47;;;;;;;;;;;13.60;59.90;;;;;;4128297;28;19929;-85
2023/06/16 03:23:08;;;;;;;;;;;13.60;60.10;;;;;;4125059;28;19960;-85
2023/06/16 03:25:30;;;;;;;;;;;13.50;59.80;;;;;;4128862;28;20407;-83
2023/06/16 03:27:51;;;;;;;;;;;13.50;60.40;;;;;;4128246;28;19928;-85
2023/06/16 03:30:12;;;;;;;;;;;13.60;61.20;;;;;;4127551;28;19921;-84
2023/06/16 03:32:33;;;;;;;;;;;13.50;61.20;;;;;;4126888;28;19973;-83
2023/06/16 03:34:55;;;;;;;;;;;13.50;61.80;;;;;;4129604;28;20024;-85
2023/06/16 03:37:16;;;;;;;;;;;13.50;61.60;;;;;;4125057;28;19922;-84
2023/06/16 03:39:36;;;;;;;;;;;13.50;61.90;;;;;;4125638;28;20349;-85
2023/06/16 03:41:57;;;;;;;;;;;13.50;62.50;;;;;;4125787;28;19928;-85
2023/06/16 03:44:18;;;;;;;;;;;13.50;63.00;;;;;;4125393;28;19928;-84
2023/06/16 03:46:39;;;;;;;;;;;13.50;62.80;;;;;;4124664;28;19926;-85
2023/06/16 03:49:00;;;;;;;;;;;13.60;62.90;;;;;;4127245;28;19926;-83
2023/06/16 03:51:20;;;;;;;;;;;13.50;60.90;;;;;;4124442;28;19913;-84
2023/06/16 03:53:41;;;;;;;;;;;13.50;61.10;;;;;;4129172;28;19929;-82
2023/06/16 03:56:02;;;;;;;;;;;13.60;61.30;;;;;;4128446;28;19929;-83
2023/06/16 03:58:24;;;;;;;;;;;13.50;61.80;;;;;;4130222;28;19918;-81
2023/06/16 04:00:44;;;;;;;;;;;13.50;61.80;;;;;;4126772;28;19995;-83
2023/06/16 04:03:05;;;;;;;;;;;13.60;62.50;;;;;;4127395;28;20494;-82
2023/06/16 04:05:26;;;;;;;;;;;13.70;62.50;;;;;;4127093;28;20663;-84
2023/06/16 04:07:47;;;;;;;;;;;13.60;63.30;;;;;;4127406;28;19914;-83
2023/06/16 04:10:08;;;;;;;;;;;13.60;63.50;;;;;;4126419;28;19933;-84
2023/06/16 04:12:29;;;;;;;;;;;13.60;63.30;;;;;;4119411;28;19924;-85
2023/06/16 04:14:49;;;;;;;;;;;13.60;63.60;;;;;;4123309;28;19929;-84
2023/06/16 04:17:10;;;;;;;;;;;13.70;63.90;;;;;;4123955;28;19929;-83
2023/06/16 04:19:31;;;;;;;;;;;13.70;64.50;;;;;;4123273;28;19921;-84
2023/06/16 04:21:52;;;;;;;;;;;13.70;64.50;;;;;;4124789;28;20480;-84
2023/06/16 04:24:14;;;;;;;;;;;13.80;65.90;;;;;;4129601;28;19932;-84
2023/06/16 04:26:35;;;;;;;;;;;13.80;65.70;;;;;;4126902;28;19932;-83
2023/06/16 04:28:56;;;;;;;;;;;13.70;65.20;;;;;;4138041;28;19925;-83
2023/06/16 04:31:17;;;;;;;;;;;13.80;65.60;;;;;;4127068;28;20057;-84
2023/06/16 04:33:41;;;;;;;;;;;13.80;65.70;;;;;;4123268;28;19933;-84
2023/06/16 04:36:11;;;;;;;;;;;13.90;66.80;;;;;;4123853;28;19921;-84
2023/06/16 04:38:32;;;;;;;;;;;13.80;66.00;;;;;;4118474;28;19922;-83
2023/06/16 04:40:53;;;;;;;;;;;13.80;66.50;;;;;;4122861;28;19985;-85
2023/06/16 04:43:14;;;;;;;;;;;13.90;68.40;;;;;;4121530;28;20403;-83
2023/06/16 04:45:34;;;;;;;;;;;13.90;67.30;;;;;;4124689;28;19922;-83
2023/06/16 04:47:55;;;;;;;;;;;13.90;67.20;;;;;;4124503;28;19922;-84
2023/06/16 04:50:16;;;;;;;;;;;14.00;68.30;;;;;;4125393;28;19913;-84
2023/06/16 04:53:03;;;;;;;;;;;14.00;67.80;;;;;;4125028;28;19921;-82
2023/06/16 04:55:24;;;;;;;;;;;14.00;67.90;;;;;;4121722;28;20002;-82
2023/06/16 04:57:45;;;;;;;;;;;14.00;69.40;;;;;;4122331;28;19921;-84
2023/06/16 05:00:07;;;;;;;;;;;14.10;69.10;;;;;;4124335;28;20143;-82
2023/06/16 05:02:27;;;;;;;;;;;14.10;68.70;;;;;;4123064;28;19969;-84
2023/06/16 05:04:48;;;;;;;;;;;14.20;69.00;;;;;;4122382;28;19956;-83
2023/06/16 05:07:10;;;;;;;;;;;14.30;69.60;;;;;;4125507;28;19980;-83
2023/06/16 05:09:32;;;;;;;;;;;14.30;69.30;;;;;;4126228;28;19926;-83
2023/06/16 05:11:53;;;;;;;;;;;14.40;69.40;;;;;;4127167;28;19918;-83
2023/06/16 05:14:13;;;;;;;;;;;14.40;70.80;;;;;;4125340;28;19936;-84
2023/06/16 05:16:34;;;;;;;;;;;14.40;69.90;;;;;;4131542;28;19926;-84
2023/06/16 05:18:55;;;;;;;;;;;14.50;70.50;;;;;;4129849;28;19921;-83
2023/06/16 05:21:16;;;;;;;;;;;14.60;70.20;;;;;;4125662;28;19918;-84
2023/06/16 05:23:37;;;;;;;;;;;14.60;70.50;;;;;;4131329;28;19928;-83
2023/06/16 05:25:57;;;;;;;;;;;14.60;70.10;;;;;;4131790;28;19922;-85
2023/06/16 05:28:18;;;;;;;;;;;14.70;70.60;;;;;;4132552;28;19926;-84
2023/06/16 05:30:39;;;;;;;;;;;14.80;70.80;;;;;;4132088;28;19914;-83
2023/06/16 05:33:00;;;;;;;;;;;14.80;71.40;;;;;;4130227;28;19921;-84
2023/06/16 05:35:21;;;;;;;;;;;14.80;71.10;;;;;;4128913;28;19945;-84
2023/06/16 05:37:41;;;;;;;;;;;14.90;70.90;;;;;;4127492;28;19924;-83
2023/06/16 05:40:02;;;;;;;;;;;14.90;70.60;;;;;;4130609;28;20458;-83
2023/06/16 05:42:23;;;;;;;;;;;15.00;71.20;;;;;;4131689;28;19952;-84
2023/06/16 05:44:44;;;;;;;;;;;15.10;70.80;;;;;;4130521;28;19949;-84
2023/06/16 05:47:05;;;;;;;;;;;15.20;71.20;;;;;;4132051;28;19922;-83
2023/06/16 05:49:26;;;;;;;;;;;15.20;70.80;;;;;;4130799;28;20364;-84
2023/06/16 05:51:47;;;;;;;;;;;15.30;70.90;;;;;;4130130;28;19922;-83
2023/06/16 05:54:08;;;;;;;;;;;15.40;70.70;;;;;;4128922;28;19922;-84
2023/06/16 05:56:29;;;;;;;;;;;15.40;70.30;;;;;;4133096;28;19922;-85
2023/06/16 05:58:50;;;;;;;;;;;15.40;70.30;;;;;;4122966;28;19952;-83
2023/06/16 06:01:13;;;;;;;;;;;15.50;70.30;;;;;;4124731;28;19928;-83
2023/06/16 06:03:33;;;;;;;;;;;15.50;70.10;;;;;;4128203;28;19941;-83
2023/06/16 06:05:56;;;;;;;;;;;15.50;70.20;;;;;;4126208;28;19929;-84
2023/06/16 06:08:22;;;;;;;;;;;15.60;70.10;;;;;;4123354;28;19922;-82
2023/06/16 06:10:43;;;;;;;;;;;15.50;69.70;;;;;;4125918;28;19928;-82
2023/06/16 06:13:04;;;;;;;;;;;15.60;69.90;;;;;;4126708;28;19922;-82
2023/06/16 06:15:25;;;;;;;;;;;15.60;70.10;;;;;;4122306;28;19922;-84
2023/06/16 06:17:46;;;;;;;;;;;15.70;70.10;;;;;;4124838;28;19925;-83
2023/06/16 06:20:07;;;;;;;;;;;15.60;70.10;;;;;;4121913;28;20024;-81
2023/06/16 06:22:32;;;;;;;;;;;15.60;69.90;;;;;;4128186;28;19933;-84
2023/06/16 06:24:53;;;;;;;;;;;15.80;70.40;;;;;;4123092;28;19929;-83
2023/06/16 06:27:14;;;;;;;;;;;15.70;70.20;;;;;;4132197;28;20809;-84
2023/06/16 06:29:35;;;;;;;;;;;15.70;70.20;;;;;;4120829;28;19926;-81
2023/06/16 06:31:56;;;;;;;;;;;15.70;70.40;;;;;;4121548;28;19951;-84
2023/06/16 06:34:17;;;;;;;;;;;15.70;69.80;;;;;;4123698;28;20001;-83
2023/06/16 06:36:39;;;;;;;;;;;15.70;70.00;;;;;;4126258;28;19922;-83
2023/06/16 06:39:00;;;;;;;;;;;15.80;70.00;;;;;;4126762;28;20020;-82
2023/06/16 06:41:24;;;;;;;;;;;15.70;69.80;;;;;;4125127;28;19914;-83
2023/06/16 06:43:45;;;;;;;;;;;15.80;70.00;;;;;;4131765;28;19914;-83
2023/06/16 06:46:06;;;;;;;;;;;15.80;70.00;;;;;;4128646;28;19972;-85
2023/06/16 06:48:27;;;;;;;;;;;15.80;70.20;;;;;;4130291;28;19968;-82
2023/06/16 06:50:48;;;;;;;;;;;15.90;70.40;;;;;;4126529;28;19922;-82
2023/06/16 06:53:09;;;;;;;;;;;16.00;70.50;;;;;;4124840;28;19921;-84
2023/06/16 06:55:30;;;;;;;;;;;16.00;70.30;;;;;;4139481;28;19925;-83
2023/06/16 06:57:51;;;;;;;;;;;16.00;70.20;;;;;;4125653;28;20000;-84
2023/06/16 07:00:12;;;;;;;;;;;16.10;70.10;;;;;;4130279;28;19976;-83
2023/06/16 07:02:33;;;;;;;;;;;16.20;70.00;;;;;;4129807;28;19928;-84
2023/06/16 07:04:54;;;;;;;;;;;16.20;69.90;;;;;;4126530;28;19976;-81
2023/06/16 07:07:15;;;;;;;;;;;16.30;70.00;;;;;;4127491;28;19945;-82
2023/06/16 07:09:36;;;;;;;;;;;16.40;70.30;;;;;;4126727;28;19925;-82
2023/06/16 07:11:57;;;;;;;;;;;16.50;70.00;;;;;;4129505;28;19921;-83
2023/06/16 07:14:18;;;;;;;;;;;16.50;69.70;;;;;;4129393;28;19928;-83
2023/06/16 07:16:38;;;;;;;;;;;16.60;69.50;;;;;;4128026;28;19925;-83
2023/06/16 07:19:01;;;;;;;;;;;16.70;69.20;;;;;;4128611;28;19949;-83
2023/06/16 07:21:22;;;;;;;;;;;16.70;69.70;;;;;;4127161;28;19932;-83
2023/06/16 07:23:43;;;;;;;;;;;16.80;69.00;;;;;;4127647;28;19994;-83
2023/06/16 07:26:04;;;;;;;;;;;16.80;69.00;;;;;;4127698;28;19936;-86
2023/06/16 07:28:24;;;;;;;;;;;16.90;68.90;;;;;;4129085;28;19926;-83
2023/06/16 07:30:45;;;;;;;;;;;17.00;69.00;;;;;;4131538;28;20446;-85
2023/06/16 07:33:06;;;;;;;;;;;17.10;69.00;;;;;;4130288;28;19922;-84
2023/06/16 07:35:27;;;;;;;;;;;17.20;68.90;;;;;;4132295;28;19922;-85
2023/06/16 07:37:48;;;;;;;;;;;17.30;68.60;;;;;;4125146;28;19929;-85
2023/06/16 07:40:13;;;;;;;;;;;17.40;68.40;;;;;;4129226;28;19921;-85
2023/06/16 07:42:34;;;;;;;;;;;17.50;68.20;;;;;;4126287;28;20585;-86
2023/06/16 07:44:55;;;;;;;;;;;17.60;68.10;;;;;;4122469;28;19922;-84
2023/06/16 07:47:16;;;;;;;;;;;17.70;67.80;;;;;;4129101;28;19957;-85
2023/06/16 07:49:36;;;;;;;;;;;17.90;67.70;;;;;;4128732;28;20619;-84
2023/06/16 07:51:59;;;;;;;;;;;17.90;67.40;;;;;;4125340;28;20318;-84
2023/06/16 07:54:20;;;;;;;;;;;18.00;67.10;;;;;;4120778;28;20554;-83
2023/06/16 07:56:42;;;;;;;;;;;18.00;66.40;;;;;;4125169;28;19921;-86
2023/06/16 07:59:03;;;;;;;;;;;18.20;66.00;;;;;;4128568;28;19975;-84
2023/06/16 08:01:24;;;;;;;;;;;18.20;65.80;;;;;;4129155;28;19921;-83
2023/06/16 08:03:46;;;;;;;;;;;18.30;65.70;;;;;;4135125;28;19926;-85
2023/06/16 08:06:07;;;;;;;;;;;18.40;65.20;;;;;;4123994;28;19922;-84
2023/06/16 08:08:27;;;;;;;;;;;18.50;65.00;;;;;;4128818;28;19921;-84
2023/06/16 08:10:48;;;;;;;;;;;18.50;64.90;;;;;;4125524;28;19921;-83
2023/06/16 08:13:09;;;;;;;;;;;18.60;64.70;;;;;;4135487;28;19940;-85
2023/06/16 08:15:30;;;;;;;;;;;18.70;64.60;;;;;;4134401;28;19918;-84
2023/06/16 08:17:51;;;;;;;;;;;18.70;64.30;;;;;;4134459;28;19914;-84
2023/06/16 08:20:12;;;;;;;;;;;18.80;64.30;;;;;;4132641;28;19921;-85
2023/06/16 08:22:33;;;;;;;;;;;18.80;64.10;;;;;;4124201;28;19969;-85
2023/06/16 08:24:54;;;;;;;;;;;18.80;63.90;;;;;;4129546;28;20363;-84
2023/06/16 08:27:14;;;;;;;;;;;18.80;64.50;;;;;;4133213;28;19920;-86
2023/06/16 08:29:35;;;;;;;;;;;18.90;63.60;;;;;;4130069;28;19993;-85
2023/06/16 08:31:56;;;;;;;;;;;19.00;63.70;;;;;;4134916;28;19914;-84
2023/06/16 08:34:18;;;;;;;;;;;19.00;63.70;;;;;;4129900;28;19913;-85
2023/06/16 08:36:39;;;;;;;;;;;19.10;63.80;;;;;;4136333;28;20523;-85
2023/06/16 08:39:00;;;;;;;;;;;19.10;63.80;;;;;;4130719;28;19914;-84
2023/06/16 08:41:21;;;;;;;;;;;19.20;63.80;;;;;;4133633;28;19999;-85
2023/06/16 08:43:43;;;;;;;;;;;19.20;63.50;;;;;;4126415;28;19965;-85
2023/06/16 08:46:05;;;;;;;;;;;19.30;63.50;;;;;;4129312;28;20100;-84
2023/06/16 08:48:26;;;;;;;;;;;19.40;63.60;;;;;;4132358;28;19917;-85
2023/06/16 08:50:47;;;;;;;;;;;19.40;63.50;;;;;;4131335;28;19922;-84
2023/06/16 08:53:10;;;;;;;;;;;19.50;63.50;;;;;;4130781;28;19921;-85
2023/06/16 08:55:32;;;;;;;;;;;19.60;63.70;;;;;;4126724;28;19922;-84
2023/06/16 08:57:55;;;;;;;;;;;19.70;63.60;;;;;;4128137;28;19918;-84
2023/06/16 09:00:16;;;;;;;;;;;19.80;63.40;;;;;;4145245;28;20897;-85
2023/06/16 09:02:37;;;;;;;;;;;19.90;63.10;;;;;;4134988;28;19906;-85
2023/06/16 09:04:59;;;;;;;;;;;19.90;62.70;;;;;;4133156;28;20013;-85
2023/06/16 09:07:20;;;;;;;;;;;20.10;62.40;;;;;;4128710;28;19921;-83
2023/06/16 09:09:41;;;;;;;;;;;20.10;62.00;;;;;;4132104;28;19949;-86
2023/06/16 09:12:03;;;;;;;;;;;20.20;61.90;;;;;;4128922;28;19937;-84
2023/06/16 09:14:29;;;;;;;;;;;20.30;61.20;;;;;;4126475;28;19922;-83
2023/06/16 09:16:55;;;;;;;;;;;20.40;61.00;;;;;;4121579;28;20285;-85
2023/06/16 09:19:16;;;;;;;;;;;20.40;61.00;;;;;;4124346;28;20458;-83
2023/06/16 09:21:38;;;;;;;;;;;20.50;60.40;;;;;;4121007;28;19913;-84
2023/06/16 09:24:00;;;;;;;;;;;20.60;59.60;;;;;;4124420;28;19918;-85
2023/06/16 09:26:21;;;;;;;;;;;20.60;59.20;;;;;;4121748;28;19969;-85
2023/06/16 09:28:44;;;;;;;;;;;20.70;59.40;;;;;;4126795;28;19960;-84
2023/06/16 09:31:05;;;;;;;;;;;20.70;59.40;;;;;;4123888;28;20008;-84
2023/06/16 09:33:26;;;;;;;;;;;20.80;58.90;;;;;;4123314;28;19937;-84
2023/06/16 09:35:48;;;;;;;;;;;20.80;58.80;;;;;;4123018;28;21003;-85
2023/06/16 09:38:09;;;;;;;;;;;20.90;58.80;;;;;;4127719;28;20012;-84
2023/06/16 09:40:31;;;;;;;;;;;21.00;58.50;;;;;;4131218;28;19941;-84
2023/06/16 09:42:52;;;;;;;;;;;21.00;58.20;;;;;;4124409;28;19925;-85
2023/06/16 09:45:13;;;;;;;;;;;21.10;58.50;;;;;;4127049;28;19928;-86
2023/06/16 09:47:36;;;;;;;;;;;21.20;58.70;;;;;;4126655;28;19922;-84
2023/06/16 09:49:57;;;;;;;;;;;21.20;58.40;;;;;;4130410;28;19960;-84
2023/06/16 09:52:25;;;;;;;;;;;21.30;58.50;;;;;;4126136;28;19932;-85
2023/06/16 09:54:45;;;;;;;;;;;21.40;58.40;;;;;;4127626;28;20100;-84
2023/06/16 09:57:06;;;;;;;;;;;21.50;58.40;;;;;;4127021;28;19969;-84
2023/06/16 09:59:27;;;;;;;;;;;21.60;57.70;;;;;;4125772;28;19917;-85
2023/06/16 10:01:48;;;;;;;;;;;21.90;57.60;;;;;;4128946;28;20471;-86
2023/06/16 10:04:10;;;;;;;;;;;21.90;56.30;;;;;;4126228;28;20380;-85
2023/06/16 10:06:31;;;;;;;;;;;22.00;56.10;;;;;;4122083;28;20388;-85
2023/06/16 10:08:54;;;;;;;;;;;22.00;55.20;;;;;;4126089;28;19918;-84
2023/06/16 10:11:16;;;;;;;;;;;22.10;54.80;;;;;;4130350;28;19945;-85
2023/06/16 10:13:38;;;;;;;;;;;22.20;54.60;;;;;;4127652;28;20144;-84
2023/06/16 10:16:00;;;;;;;;;;;22.30;54.60;;;;;;4133453;28;19921;-84
2023/06/16 10:18:22;;;;;;;;;;;22.30;53.50;;;;;;4129874;28;19922;-85
2023/06/16 10:20:44;;;;;;;;;;;22.40;54.10;;;;;;4134481;28;19963;-84
2023/06/16 10:23:06;;;;;;;;;;;22.50;53.60;;;;;;4127088;28;19921;-84
2023/06/16 10:25:28;;;;;;;;;;;22.50;53.30;;;;;;4131704;28;19914;-85
2023/06/16 10:27:50;;;;;;;;;;;22.60;53.30;;;;;;4127950;28;19968;-82
2023/06/16 10:30:16;;;;;;;;;;;22.70;53.20;;;;;;4130361;28;19985;-83
2023/06/16 10:32:37;;;;;;;;;;;22.80;51.50;;;;;;4129423;28;20045;-85
2023/06/16 10:35:00;;;;;;;;;;;22.80;52.10;;;;;;4121837;28;19929;-84
2023/06/16 10:37:21;;;;;;;;;;;22.90;51.80;;;;;;4124179;28;20021;-84
2023/06/16 10:39:42;;;;;;;;;;;23.00;52.20;;;;;;4120692;28;19949;-84
2023/06/16 10:42:07;;;;;;;;;;;23.10;51.20;;;;;;4130440;28;19964;-81
2023/06/16 10:44:31;;;;;;;;;;;23.10;50.60;;;;;;4131540;28;20326;-81
2023/06/16 10:47:07;;;;;;;;;;;23.30;49.70;;;;;;4126509;28;19964;-82
2023/06/16 10:49:28;;;;;;;;;;;23.30;48.40;;;;;;4127893;28;19918;-82
2023/06/16 10:51:50;;;;;;;;;;;23.40;48.10;;;;;;4126120;28;19964;-82
2023/06/16 10:54:12;;;;;;;;;;;23.40;47.20;;;;;;4123422;28;20017;-81
2023/06/16 10:56:52;;;;;;;;;;;23.50;47.20;;;;;;4122899;28;20625;-82
2023/06/16 10:59:16;;;;;;;;;;;23.50;47.20;;;;;;4127724;28;20394;-83
2023/06/16 11:01:44;;;;;;;;;;;23.60;47.40;;;;;;4127968;28;19914;-83
2023/06/16 11:04:05;;;;;;;;;;;23.60;47.00;;;;;;4129240;28;19961;-82
2023/06/16 11:06:27;;;;;;;;;;;23.70;47.60;;;;;;4127703;28;20280;-81
2023/06/16 11:08:52;;;;;;;;;;;23.70;47.50;;;;;;4128185;28;20152;-82
2023/06/16 11:11:13;;;;;;;;;;;23.70;46.60;;;;;;4121164;28;19922;-80
2023/06/16 11:13:35;;;;;;;;;;;23.80;46.90;;;;;;4121233;28;19996;-82
2023/06/16 11:15:57;;;;;;;;;;;23.80;47.20;;;;;;4132541;28;20323;-83
2023/06/16 11:18:22;;;;;;;;;;;23.90;46.70;;;;;;4129807;28;19910;-82
2023/06/16 11:20:43;;;;;;;;;;;23.90;46.40;;;;;;4132135;28;19921;-81
2023/06/16 11:23:04;;;;;;;;;;;24.00;46.70;;;;;;4130101;28;19913;-83
2023/06/16 11:25:25;;;;;;;;;;;24.00;46.60;;;;;;4134185;28;19913;-82
2023/06/16 11:27:46;;;;;;;;;;;24.10;45.50;;;;;;4127850;28;19949;-82
2023/06/16 11:30:07;;;;;;;;;;;24.20;45.20;;;;;;4134093;28;19921;-82
2023/06/16 11:32:32;;;;;;;;;;;24.20;43.50;;;;;;4126345;28;19924;-81
2023/06/16 11:34:54;;;;;;;;;;;24.30;45.10;;;;;;4122290;28;19913;-86
2023/06/16 11:37:15;;;;;;;;;;;24.30;43.90;;;;;;4117122;28;19918;-80
2023/06/16 11:39:42;;;;;;;;;;;24.40;45.70;;;;;;4122434;28;20368;-83
2023/06/16 11:42:04;;;;;;;;;;;24.40;45.10;;;;;;4129147;28;19918;-83
2023/06/16 11:44:25;;;;;;;;;;;24.40;45.10;;;;;;4120775;28;20044;-83
2023/06/16 11:46:49;;;;;;;;;;;24.50;45.90;;;;;;4137404;28;19942;-83
2023/06/16 11:49:10;;;;;;;;;;;24.60;45.50;;;;;;4137030;28;20115;-82
2023/06/16 11:51:32;;;;;;;;;;;24.60;45.70;;;;;;4125871;28;19938;-81
2023/06/16 11:53:53;;;;;;;;;;;24.70;45.80;;;;;;4130558;28;19914;-83
2023/06/16 11:56:15;;;;;;;;;;;24.70;45.80;;;;;;4129027;28;19929;-82
2023/06/16 11:58:38;;;;;;;;;;;24.80;45.50;;;;;;4124324;28;21678;-82
2023/06/16 12:01:00;;;;;;;;;;;24.80;45.30;;;;;;4126495;28;19917;-82
2023/06/16 12:03:24;;;;;;;;;;;24.80;45.20;;;;;;4126398;28;19934;-83
2023/06/16 12:05:44;;;;;;;;;;;24.90;45.00;;;;;;4130779;28;19917;-82
2023/06/16 12:08:06;;;;;;;;;;;24.90;43.10;;;;;;4126730;28;20422;-82
2023/06/16 12:10:26;;;;;;;;;;;24.90;44.10;;;;;;4129062;28;19933;-81
2023/06/16 12:12:47;;;;;;;;;;;25.00;44.40;;;;;;4128174;28;20004;-81
2023/06/16 12:15:12;;;;;;;;;;;25.00;41.80;;;;;;4129924;28;19917;-82
2023/06/16 12:17:33;;;;;;;;;;;25.10;43.90;;;;;;4127549;28;20343;-82
2023/06/16 12:19:54;;;;;;;;;;;25.10;42.10;;;;;;4127597;28;19941;-83
2023/06/16 12:22:16;;;;;;;;;;;25.20;41.70;;;;;;4126126;28;19914;-83
2023/06/16 12:24:38;;;;;;;;;;;25.30;42.60;;;;;;4129458;28;19938;-82
2023/06/16 12:27:00;;;;;;;;;;;25.40;43.30;;;;;;4132706;28;20347;-82
2023/06/16 12:29:25;;;;;;;;;;;25.50;43.20;;;;;;4128853;28;19914;-83
2023/06/16 12:31:53;;;;;;;;;;;25.50;43.70;;;;;;4136180;28;19920;-83
2023/06/16 12:34:26;;;;;;;;;;;25.70;43.90;;;;;;4131420;28;20384;-83
2023/06/16 12:36:47;;;;;;;;;;;25.80;42.60;;;;;;4121380;28;20338;-83
2023/06/16 12:39:14;;;;;;;;;;;25.90;43.20;;;;;;4129186;28;19910;-83
2023/06/16 12:41:35;;;;;;;;;;;25.90;43.20;;;;;;4136428;28;20399;-83
2023/06/16 12:43:56;;;;;;;;;;;26.00;42.30;;;;;;4126899;28;19917;-83
2023/06/16 12:46:17;;;;;;;;;;;26.10;42.40;;;;;;4131801;28;19960;-82
2023/06/16 12:48:38;;;;;;;;;;;26.20;42.90;;;;;;4130849;28;19940;-82
2023/06/16 12:50:59;;;;;;;;;;;26.20;42.50;;;;;;4127724;28;20028;-82
2023/06/16 12:53:20;;;;;;;;;;;26.30;42.90;;;;;;4130157;28;19994;-83
2023/06/16 12:55:41;;;;;;;;;;;26.50;43.40;;;;;;4131431;28;19978;-82
2023/06/16 12:58:02;;;;;;;;;;;26.50;42.40;;;;;;4133699;28;20446;-83
2023/06/16 13:00:23;;;;;;;;;;;26.60;42.20;;;;;;4127917;28;20402;-83
2023/06/16 13:02:44;;;;;;;;;;;26.70;41.80;;;;;;4126627;28;19929;-82
2023/06/16 13:05:05;;;;;;;;;;;26.80;42.70;;;;;;4122299;28;19918;-83
2023/06/16 13:07:26;;;;;;;;;;;26.80;43.00;;;;;;4124884;28;19929;-82
2023/06/16 13:09:46;;;;;;;;;;;26.80;42.80;;;;;;4125536;28;19910;-82
2023/06/16 13:12:07;;;;;;;;;;;26.80;42.50;;;;;;4133924;28;19925;-84
2023/06/16 13:14:28;;;;;;;;;;;26.90;42.60;;;;;;4127040;28;20365;-84
2023/06/16 13:16:49;;;;;;;;;;;26.90;42.40;;;;;;4126224;28;20081;-84
2023/06/16 13:19:10;;;;;;;;;;;26.80;42.60;;;;;;4125730;28;20008;-84
2023/06/16 13:21:31;;;;;;;;;;;26.80;42.70;;;;;;4133448;28;20434;-85
2023/06/16 13:23:52;;;;;;;;;;;26.80;42.70;;;;;;4130540;28;19999;-84
2023/06/16 13:26:13;;;;;;;;;;;26.70;42.80;;;;;;4130453;28;19964;-83
2023/06/16 13:28:37;;;;;;;;;;;26.70;43.00;;;;;;4125873;28;19913;-84
2023/06/16 13:31:00;;;;;;;;;;;26.70;43.60;;;;;;4118995;28;20005;-85
2023/06/16 13:33:21;;;;;;;;;;;26.60;43.70;;;;;;4123273;28;19918;-82
2023/06/16 13:35:42;;;;;;;;;;;26.50;44.00;;;;;;4140363;28;19979;-82
2023/06/16 13:38:03;;;;;;;;;;;26.40;44.20;;;;;;4125652;28;19961;-83
2023/06/16 13:40:24;;;;;;;;;;;26.30;44.40;;;;;;4126229;28;19922;-83
2023/06/16 13:42:45;;;;;;;;;;;26.30;44.70;;;;;;4127936;28;20653;-85
2023/06/16 13:45:06;;;;;;;;;;;26.20;44.70;;;;;;4126910;28;20404;-85